Date,TemperatureHighF,TemperatureAvgF,TemperatureLowF,DewpointHighF,DewpointAvgF,DewpointLowF,HumidityHigh,HumidityAvg,HumidityLow,PressureMaxIn,PressureMinIn,WindSpeedMaxMPH,WindSpeedAvgMPH,GustSpeedMaxMPH,PrecipitationSumIn
2013-1-1,36.7,32.8,26.1,35.1,30.6,23.0,96,92,86,30.24,30.06,14,3,19,0.01
2013-1-2,26.1,23.9,23.4,23.0,20.8,20.4,88,88,87,30.33,30.23,13,2,14,0.00
2013-1-8,47.1,44.9,42.1,37.8,35.8,34.1,74,70,64,30.27,30.22,3,0,3,0.00
2013-1-9,55.6,50.5,45.6,48.4,44.3,37.8,87,79,72,30.47,30.27,9,2,10,0.00
2013-1-10,64.3,55.8,46.9,60.8,52.9,42.8,95,90,84,30.45,29.92,19,7,24,0.17
2013-1-11,66.7,59.3,54.1,61.5,53.8,49.4,100,83,59,30.03,29.87,27,8,29,0.55
2013-1-12,69.2,65.0,57.6,65.8,62.1,55.6,97,91,82,30.01,29.77,20,5,21,0.00
2013-1-13,68.4,44.4,26.9,63.4,42.3,23.8,97,92,80,30.32,29.76,18,7,21,1.23
2013-1-14,29.2,26.1,23.4,24.1,22.1,20.0,91,85,75,30.49,30.31,16,5,17,0.00
2013-1-15,30.0,26.9,21.9,28.2,24.1,19.4,93,89,84,30.36,30.09,18,5,18,0.00
2013-1-16,32.2,30.1,28.5,29.0,27.6,26.2,94,90,85,30.19,30.07,10,2,11,0.00
2013-1-17,47.1,35.3,28.4,37.3,29.9,24.5,94,81,66,30.50,30.16,22,4,24,0.01
2013-1-18,29.2,23.1,22.4,25.0,20.0,19.4,88,88,83,30.61,30.37,8,0,10,0.00
2013-1-19,57.1,42.1,22.4,35.2,29.0,19.4,88,62,37,30.37,30.11,26,6,28,0.00
2013-1-20,48.4,39.2,26.7,33.4,26.2,18.2,90,61,33,30.32,30.15,18,2,20,0.00
2013-1-21,35.7,26.5,21.3,19.6,14.7,7.4,82,62,36,30.38,30.24,20,4,20,0.00
2013-1-22,21.6,16.5,16.0,8.6,4.4,2.9,59,58,47,30.51,30.37,15,2,15,0.00
2013-1-23,16.0,16.0,16.0,4.2,4.2,4.2,59,59,59,30.44,30.14,2,2,2,0.00
2013-1-24,32.0,24.4,16.0,16.3,8.4,4.2,69,51,38,30.60,30.24,19,5,19,0.00
2013-1-25,33.4,28.5,23.2,29.8,22.9,7.3,95,81,41,30.34,30.15,15,2,15,0.00
2013-1-26,25.0,23.8,21.5,23.8,22.3,20.0,95,94,94,30.41,30.30,4,1,4,0.00
2013-1-27,46.6,35.4,23.9,42.8,32.8,22.4,94,90,84,30.40,30.18,11,3,12,0.05
2013-1-28,60.4,53.4,44.1,56.0,48.9,39.9,96,85,71,30.20,30.09,19,6,21,0.29
2013-1-29,70.3,61.9,54.4,63.4,57.8,51.5,93,87,78,30.10,29.50,35,8,35,0.00
2013-1-30,70.4,48.4,32.9,63.4,43.8,23.9,100,84,68,29.94,29.43,32,10,35,0.98
2013-1-31,43.0,34.0,20.8,32.6,24.8,15.3,94,69,51,30.33,29.94,28,9,28,0.01
2013-2-1,20.8,15.1,14.7,15.3,7.0,6.4,79,70,69,30.58,30.33,17,3,21,0.00
2013-2-2,41.7,29.0,14.7,33.0,22.0,6.4,92,75,57,30.39,30.10,22,5,22,0.00
2013-2-3,41.5,33.3,24.2,33.3,27.7,20.6,94,80,57,30.22,30.03,23,4,23,0.00
2013-2-4,52.4,38.4,25.7,41.1,32.1,22.1,90,79,44,30.17,29.93,19,4,20,0.00
2013-2-5,58.4,45.3,34.0,44.6,38.4,31.1,93,78,44,30.11,29.94,15,3,15,0.00
2013-2-6,68.0,47.7,29.8,50.0,36.0,26.1,94,67,40,30.29,30.11,10,2,11,0.04
2013-2-7,47.7,43.1,42.7,29.5,26.1,25.9,51,51,48,30.13,29.88,0,0,0,0.00
2013-2-8,42.8,42.8,42.8,25.9,25.9,25.9,51,51,51,30.37,29.92,0,0,0,0.00
2013-2-9,42.8,42.8,42.8,25.9,25.9,25.9,51,51,51,30.39,30.11,0,0,0,0.00
2013-2-10,42.8,42.8,42.8,25.9,25.9,25.9,51,51,51,30.11,29.76,0,0,0,0.00
2013-2-11,42.8,42.8,42.8,25.9,25.9,25.9,51,51,51,30.14,29.89,0,0,0,0.00
2013-2-13,0.0,0.0,0.0,0.0,0.0,0.0,0,0,100,29.99,29.98,0,0,0,0.00
2013-2-14,0.0,0.0,0.0,0.0,0.0,0.0,0,0,100,30.02,29.95,0,0,0,0.00
2013-2-15,0.0,0.0,0.0,0.0,0.0,0.0,0,0,100,30.22,30.02,0,0,0,0.00
2013-2-16,0.0,0.0,0.0,0.0,0.0,0.0,0,0,100,30.22,30.16,0,0,0,0.00
2013-2-17,0.0,0.0,0.0,0.0,0.0,0.0,0,0,100,30.28,30.14,0,0,0,0.00
2013-3-18,49.0,40.2,34.1,40.7,35.7,31.9,92,84,71,30.02,29.90,6,1,7,0.01
2013-3-19,53.6,40.7,29.2,32.4,23.7,7.5,95,57,18,30.24,30.02,17,3,20,0.00
2013-3-20,45.9,34.1,23.6,31.5,22.9,14.5,91,65,39,30.22,30.11,20,4,21,0.00
2013-3-21,42.1,32.1,18.7,18.6,15.8,10.9,84,53,33,30.15,30.02,13,3,15,0.00
2013-3-22,41.9,36.9,30.7,25.1,20.5,15.9,58,51,44,30.09,30.01,11,4,11,0.00
2013-3-23,55.9,46.9,39.1,41.7,32.5,24.5,84,58,46,30.04,29.76,13,4,13,0.15
2013-3-24,48.9,41.0,33.4,44.4,37.7,28.7,94,88,77,29.78,29.43,34,8,35,0.39
2013-3-25,37.1,33.3,31.0,31.4,28.7,26.8,93,83,72,30.18,29.73,29,10,32,0.00
2013-3-26,40.8,34.6,27.4,29.9,27.4,22.9,92,76,56,30.39,30.18,14,4,14,0.01
2013-3-27,50.0,37.1,20.5,31.4,25.1,18.6,94,65,36,30.45,30.35,13,2,14,0.00
2013-3-28,59.7,46.6,33.4,37.6,31.4,26.4,81,57,38,30.43,30.30,7,1,8,0.00
2013-3-29,56.6,48.6,43.6,47.1,41.4,30.2,91,77,50,30.32,30.20,12,3,12,0.16
2013-3-30,53.2,48.9,45.4,49.0,45.2,41.9,95,87,75,30.24,29.92,11,3,12,0.40
2013-3-31,61.7,52.4,42.3,51.8,47.8,40.5,96,85,58,29.98,29.89,9,2,10,0.02
2013-4-1,56.9,46.8,38.2,42.7,35.0,24.8,96,66,44,30.21,29.92,22,3,22,0.00
2013-4-2,50.4,41.4,31.9,26.1,22.6,17.0,73,49,28,30.33,30.21,13,2,15,0.00
2013-4-3,53.5,42.8,30.3,25.0,21.1,17.6,69,44,26,30.37,30.24,23,5,24,0.00
2013-4-4,47.8,44.3,40.3,43.8,32.8,20.2,92,67,40,30.24,30.04,11,2,14,0.08
2013-4-5,69.8,51.2,31.3,45.5,35.9,28.7,95,63,26,30.16,30.06,15,2,18,0.00
2013-4-6,73.7,57.9,39.0,45.2,39.2,35.8,90,55,27,30.14,29.93,19,5,20,0.00
2013-4-7,74.7,63.8,53.4,55.8,47.5,38.6,66,56,41,30.03,29.94,21,6,21,0.00
2013-4-8,77.3,65.0,55.8,57.6,52.5,46.5,82,65,44,29.98,29.89,24,6,25,0.00
2013-4-9,77.3,68.5,57.3,64.6,59.3,50.8,85,73,60,30.07,29.95,21,6,24,0.00
2013-4-10,83.5,74.4,64.7,64.5,60.7,56.5,82,64,46,29.99,29.73,25,8,25,0.00
2013-4-11,72.6,60.8,49.2,62.1,57.1,46.2,95,88,58,29.76,29.57,17,4,18,2.21
2013-4-12,60.6,49.4,34.5,46.3,38.7,32.6,94,68,48,30.05,29.72,22,5,25,0.00
2013-4-13,67.0,50.7,31.9,43.7,37.4,29.7,94,63,35,30.15,30.00,10,2,13,0.00
2013-4-14,74.5,60.4,49.9,51.4,45.0,39.0,76,58,35,30.01,29.84,32,7,32,0.00
2013-4-15,78.8,66.8,53.0,61.9,56.1,49.6,90,70,50,29.98,29.87,16,5,19,0.00
2013-4-16,80.3,71.5,63.7,69.1,64.2,58.3,89,78,64,30.09,29.95,21,6,22,0.40
2013-4-17,86.3,74.8,63.4,70.9,65.0,61.3,96,74,47,30.11,29.88,20,5,20,0.00
2013-4-18,81.2,73.8,51.3,66.4,62.8,49.5,94,70,52,29.88,29.58,33,10,42,0.77
2013-4-19,51.2,43.0,35.3,49.4,35.7,31.4,95,76,58,30.14,29.63,25,6,25,0.32
2013-4-20,61.3,46.9,28.3,40.7,32.9,26.8,95,63,33,30.36,30.14,16,2,17,0.00
2013-4-21,64.0,52.3,38.7,38.8,32.1,28.0,70,48,27,30.45,30.28,13,3,13,0.00
2013-4-22,72.1,58.9,43.7,49.5,41.7,33.1,77,54,36,30.30,30.08,14,3,14,0.00
2013-4-23,74.4,63.7,51.7,57.0,51.7,44.9,82,66,50,30.13,29.90,21,6,24,0.00
2013-4-24,66.2,47.8,33.8,57.9,42.4,32.0,94,82,63,30.33,29.85,25,5,25,1.04
2013-4-25,64.7,48.4,29.2,44.0,36.9,28.0,96,69,36,30.42,30.31,15,2,16,0.00
2013-4-26,55.7,50.1,40.7,48.9,42.7,35.7,91,77,50,30.48,30.30,15,2,15,0.33
2013-4-27,59.7,54.7,48.9,57.2,52.6,46.6,95,92,87,30.36,29.92,11,5,17,1.94
2013-4-28,62.2,57.7,49.3,57.1,53.9,47.6,96,87,74,29.97,29.89,17,4,17,0.07
2013-4-29,75.3,61.5,49.5,58.8,52.7,48.1,96,75,44,30.04,29.92,11,1,11,0.00
2013-4-30,79.4,65.9,47.6,59.7,53.6,46.0,96,68,39,30.02,29.93,11,2,14,0.00
2013-5-1,81.5,68.6,53.7,65.8,57.8,50.0,90,70,44,30.12,30.02,18,3,21,0.00
2013-5-2,77.8,67.8,57.7,60.5,58.1,54.4,95,73,48,30.17,30.03,12,2,13,0.00
2013-5-3,75.0,64.4,44.9,60.5,55.6,42.7,93,75,54,30.05,29.80,27,7,29,0.13
2013-5-4,51.0,45.7,42.4,44.0,41.7,38.7,94,86,66,30.00,29.89,13,3,15,0.92
2013-5-5,59.7,51.7,44.9,52.4,48.1,42.8,95,88,71,29.97,29.84,11,2,12,0.08
2013-5-6,68.8,57.3,51.2,56.8,52.1,48.7,95,84,51,29.94,29.81,14,2,14,0.22
2013-5-7,73.9,61.0,49.5,59.7,54.7,48.4,96,81,53,30.02,29.93,12,2,12,0.01
2013-5-8,80.5,66.0,51.5,63.5,56.9,49.8,96,76,43,30.06,29.96,10,1,11,0.00
2013-5-9,79.3,68.7,54.3,66.1,59.5,52.5,96,74,52,30.07,29.95,16,4,19,0.02
2013-5-10,72.5,66.0,62.0,66.6,62.3,60.2,95,88,76,29.98,29.85,21,3,21,1.43
2013-5-11,69.3,60.2,53.1,60.8,53.0,38.8,95,78,53,30.11,29.93,17,3,17,0.00
2013-5-12,63.2,52.3,40.3,42.2,36.3,26.2,91,58,31,30.22,30.11,15,2,17,0.00
2013-5-13,70.4,54.3,35.3,47.7,39.1,32.0,96,63,27,30.29,30.16,14,2,16,0.00
2013-5-14,84.9,68.5,47.5,61.3,53.2,41.6,85,60,39,30.18,29.94,20,6,23,0.00
2013-5-15,83.8,72.7,62.5,61.7,55.2,47.8,74,56,30,30.06,29.94,23,5,23,0.01
2013-5-16,83.5,74.4,65.9,63.6,60.4,55.1,87,63,46,30.01,29.92,18,4,18,0.00
2013-5-17,69.6,66.1,62.8,65.2,62.7,58.5,93,89,76,30.03,29.94,13,3,15,0.21
2013-5-18,82.4,72.1,65.0,69.7,65.7,63.0,96,82,59,30.01,29.94,9,2,9,0.10
2013-5-19,86.8,72.1,64.5,76.3,68.5,62.7,96,89,67,29.98,29.90,12,2,14,0.02
2013-5-20,85.6,76.2,64.7,72.5,68.6,62.5,96,78,56,29.99,29.86,18,5,19,0.04
2013-5-21,79.4,70.5,64.7,68.2,65.3,62.3,95,84,62,29.98,29.81,27,5,29,0.71
2013-5-22,77.0,68.5,60.9,66.8,63.2,59.2,97,84,64,29.86,29.79,20,5,21,0.03
2013-5-23,73.0,66.1,55.9,60.6,57.3,50.1,94,75,57,30.15,29.86,19,4,19,0.00
2013-5-24,70.0,58.4,47.4,51.9,47.6,44.4,91,70,41,30.36,30.15,15,3,18,0.00
2013-5-25,77.7,62.0,43.9,53.3,47.9,42.0,96,64,32,30.38,30.17,9,2,10,0.00
2013-5-26,81.7,69.8,58.2,63.0,55.6,49.9,77,62,43,30.24,30.11,13,2,15,0.00
2013-5-27,83.7,72.7,57.6,63.7,59.9,53.9,90,66,44,30.12,29.97,27,5,27,0.00
2013-5-28,85.3,75.8,65.4,68.9,62.1,58.7,85,64,43,30.06,29.96,26,6,26,0.00
2013-5-29,87.1,75.8,63.4,71.1,64.1,57.6,89,69,44,30.10,29.97,22,5,26,0.04
2013-5-30,85.8,77.3,70.7,70.4,66.9,63.8,79,71,55,30.08,29.94,27,6,29,0.00
2013-5-31,80.9,74.9,69.1,73.4,69.1,66.2,94,82,74,30.02,29.89,22,6,23,1.01
2013-6-1,76.4,68.3,63.0,69.0,65.1,60.9,95,90,70,30.00,29.77,21,4,22,3.20
2013-6-2,79.8,70.1,61.2,66.9,63.3,58.6,96,80,54,29.97,29.90,11,2,12,0.01
2013-6-3,76.8,66.2,56.5,63.5,57.8,54.3,96,76,48,30.06,29.96,11,2,12,0.00
2013-6-4,82.0,68.6,52.9,62.4,57.6,50.7,94,70,44,30.08,29.97,11,2,11,0.00
2013-6-5,88.5,75.1,61.4,70.1,65.0,58.2,93,73,46,29.99,29.81,11,2,12,0.01
2013-6-6,80.8,71.3,64.1,71.1,66.6,62.4,96,86,62,29.82,29.75,26,2,29,0.96
2013-6-7,80.3,71.0,64.5,69.5,64.7,61.9,96,81,62,29.87,29.76,14,2,14,0.00
2013-6-8,82.7,70.2,58.8,66.1,61.4,56.0,97,76,44,30.01,29.86,12,2,16,0.00
2013-6-9,83.8,69.0,59.6,70.8,64.5,57.3,96,87,59,30.02,29.83,18,3,19,1.54
2013-6-10,82.7,71.4,63.8,72.5,65.9,61.5,97,84,55,29.93,29.83,22,4,22,0.09
2013-6-11,90.6,77.2,59.0,77.0,68.3,57.8,97,76,49,30.02,29.91,13,2,13,0.00
2013-6-12,91.6,83.7,73.3,78.6,74.2,70.4,92,74,59,30.02,29.83,21,6,22,0.00
2013-6-13,85.5,78.5,64.7,74.3,68.6,57.7,88,72,57,29.97,29.78,21,6,23,0.00
2013-6-14,82.8,70.4,55.5,62.5,57.8,52.9,93,67,44,30.06,29.94,16,2,18,0.00
2013-6-15,87.5,70.8,59.5,68.1,62.9,57.8,96,78,43,30.08,29.99,12,1,12,0.00
2013-6-16,86.1,76.4,66.7,73.3,67.8,64.1,93,76,57,30.05,29.94,15,2,16,0.00
2013-6-17,88.9,74.1,66.9,74.9,69.1,64.6,96,86,52,29.97,29.86,39,3,44,1.29
2013-6-18,85.7,74.4,65.3,69.2,66.5,63.5,96,78,53,29.96,29.84,16,3,17,0.17
2013-6-19,87.3,76.3,64.8,68.0,65.4,60.6,93,71,44,30.06,29.94,14,2,16,0.00
2013-6-20,92.3,79.1,66.6,70.6,65.8,61.4,93,66,37,30.14,30.06,9,2,11,0.00
2013-6-21,89.7,77.5,66.0,73.4,67.4,63.0,91,72,50,30.18,30.09,17,3,20,0.00
2013-6-22,88.6,79.1,68.6,70.8,68.7,65.6,94,73,49,30.18,30.05,15,3,15,0.00
2013-6-23,87.5,78.5,67.3,70.2,68.0,64.9,95,72,50,30.13,30.02,15,3,16,0.00
2013-6-24,85.8,77.2,71.9,75.4,70.0,67.3,90,79,65,30.15,30.04,18,2,18,0.00
2013-6-25,89.7,80.6,67.7,76.6,72.2,65.6,95,77,58,30.07,29.92,17,4,20,0.00
2013-6-26,89.8,80.6,69.1,75.5,72.6,67.1,95,78,60,29.96,29.76,27,7,30,0.77
2013-6-27,92.7,81.5,69.0,78.3,71.8,66.9,95,75,45,29.86,29.79,15,4,18,0.00
2013-6-28,89.6,79.1,67.0,74.1,68.4,60.9,95,72,44,29.83,29.65,14,2,16,0.00
2013-6-29,85.4,73.4,61.6,66.4,62.4,58.7,95,71,48,29.70,29.62,30,4,55,0.15
2013-6-30,81.5,67.9,58.9,68.2,63.1,57.8,97,85,60,29.82,29.69,15,2,17,0.32
2013-7-1,74.5,68.3,63.8,67.9,65.0,62.0,96,89,76,29.90,29.78,13,2,13,0.03
2013-7-2,79.0,70.4,64.2,67.2,64.4,61.5,95,82,61,30.03,29.88,16,4,17,0.00
2013-7-3,83.0,70.5,58.0,68.3,62.7,56.9,97,79,51,30.11,30.03,12,2,12,0.00
2013-7-4,73.6,69.0,64.3,68.8,66.1,62.5,96,91,82,30.10,30.03,13,2,15,0.04
2013-7-5,83.8,71.4,63.9,71.0,66.6,62.5,96,86,61,30.12,30.04,9,1,9,0.00
2013-7-6,78.5,73.8,65.5,71.5,68.0,64.0,95,83,74,30.11,30.01,16,5,17,0.99
2013-7-7,89.7,75.5,62.9,74.6,68.1,61.8,97,80,49,30.12,30.03,9,2,11,0.06
2013-7-8,91.0,78.4,65.9,76.8,70.1,64.7,97,78,49,30.15,30.05,11,2,11,0.00
2013-7-9,92.4,81.2,68.4,77.3,72.9,67.2,97,78,55,30.12,29.99,14,3,15,0.00
2013-7-10,92.0,81.7,72.2,79.7,74.0,68.8,91,78,61,30.02,29.86,18,4,19,0.00
2013-7-11,85.4,77.2,67.8,76.3,68.0,60.1,96,75,54,29.99,29.92,18,3,21,0.00
2013-7-12,82.5,73.2,63.7,62.5,59.9,53.6,87,65,42,30.06,29.98,18,4,18,0.00
2013-7-13,83.5,72.7,60.5,65.2,61.4,56.9,89,69,46,30.06,29.99,14,3,15,0.00
2013-7-14,87.3,77.9,68.7,73.2,69.5,65.1,91,76,57,30.15,30.03,17,3,17,0.00
2013-7-15,88.0,79.8,73.2,74.3,71.0,68.6,89,75,56,30.25,30.14,15,4,16,0.00
2013-7-16,93.0,81.7,69.9,74.7,71.1,67.9,95,72,50,30.32,30.22,11,2,12,0.00
2013-7-17,93.2,82.9,69.8,76.7,73.0,68.5,97,74,52,30.31,30.17,14,2,16,0.00
2013-7-18,82.2,75.3,71.7,75.9,72.6,69.2,96,91,72,30.19,30.05,10,0,11,0.16
2013-7-19,91.1,80.1,68.2,76.4,72.1,67.0,97,78,55,30.08,29.93,14,3,16,0.00
2013-7-20,89.9,80.3,70.9,76.1,72.4,68.8,95,78,57,29.97,29.84,16,4,18,0.19
2013-7-21,91.8,76.6,70.3,77.1,71.6,68.7,96,86,57,29.98,29.85,28,2,31,1.01
2013-7-22,84.4,75.6,70.3,76.0,72.2,69.1,97,89,72,29.90,29.82,15,4,17,1.88
2013-7-23,88.8,79.2,68.3,75.4,71.2,62.3,96,78,54,29.92,29.78,20,5,27,0.13
2013-7-24,83.6,73.1,63.7,70.7,65.0,60.9,96,77,57,29.98,29.79,16,2,16,0.03
2013-7-25,82.3,70.6,60.8,66.9,61.6,58.8,94,75,49,30.08,29.96,13,2,14,0.00
2013-7-26,84.4,71.3,57.2,67.2,62.3,56.1,97,76,47,30.08,29.97,13,2,13,0.00
2013-7-27,83.3,73.6,64.4,70.6,66.1,58.1,96,79,61,29.99,29.87,14,2,14,0.01
2013-7-28,79.9,67.2,51.6,59.1,55.1,50.2,96,68,40,30.09,29.98,12,2,13,0.00
2013-7-29,82.0,69.9,55.2,65.9,60.2,54.1,97,74,47,30.18,30.09,8,1,11,0.00
2013-7-30,72.8,69.2,63.7,69.7,65.7,61.0,95,89,73,30.18,30.06,10,2,11,0.57
2013-7-31,86.5,75.3,67.3,75.9,70.6,65.5,95,86,66,30.07,29.93,12,3,13,0.00
2013-8-1,85.1,74.0,63.5,70.8,67.0,61.3,97,81,56,30.05,29.96,13,2,15,0.00
2013-8-2,85.8,73.1,58.9,68.7,63.9,58.0,97,75,48,30.05,29.97,11,2,11,0.00
2013-8-3,82.1,74.2,68.8,75.1,70.5,66.1,96,88,77,30.06,29.95,11,2,12,0.37
2013-8-4,81.9,73.8,68.0,71.8,63.8,57.2,97,73,49,30.14,30.04,15,3,15,0.01
2013-8-5,82.6,69.7,59.1,67.7,62.7,57.2,94,80,51,30.10,29.95,10,2,12,0.18
2013-8-6,83.5,75.1,68.4,75.8,71.6,66.4,95,89,74,29.97,29.90,10,1,12,0.01
2013-8-7,84.8,77.3,71.8,76.4,73.5,70.6,96,88,74,29.96,29.88,10,2,11,0.02
2013-8-8,86.5,76.6,71.7,77.9,73.7,70.5,97,91,72,29.97,29.89,11,2,15,0.11
2013-8-9,90.2,78.1,71.7,79.4,73.6,70.5,97,87,62,30.03,29.93,20,2,20,0.43
2013-8-10,85.8,75.9,70.4,76.2,72.5,69.0,97,90,70,30.11,30.02,8,1,11,0.51
2013-8-11,88.5,79.1,71.5,76.2,73.2,70.2,97,83,64,30.12,30.04,8,1,9,0.00
2013-8-12,85.0,75.9,70.4,77.3,73.2,69.2,97,92,74,30.07,29.90,17,3,18,0.68
2013-8-13,83.5,75.4,66.9,74.0,69.5,62.5,97,83,60,30.04,29.91,13,3,13,0.00
2013-8-14,74.2,65.8,56.0,62.5,55.9,52.6,93,72,50,30.13,30.03,16,4,19,0.00
2013-8-15,78.3,66.3,54.4,61.9,56.7,51.6,92,73,53,30.12,30.03,12,3,13,0.00
2013-8-16,77.0,69.5,59.1,68.0,63.1,55.5,90,80,69,30.10,30.04,12,2,12,0.04
2013-8-17,80.0,70.0,65.1,71.7,66.5,63.8,96,89,68,30.14,30.05,11,2,12,1.76
2013-8-18,81.3,70.4,62.7,69.7,66.1,61.5,97,87,64,30.16,30.07,9,1,10,0.01
2013-8-19,84.5,73.0,61.7,72.1,67.3,60.7,97,84,61,30.14,30.03,9,1,9,0.00
2013-8-20,86.0,73.5,65.0,75.7,69.1,63.8,97,87,63,30.12,30.04,14,1,16,0.82
2013-8-21,90.5,78.1,66.9,77.5,71.7,66.0,98,83,51,30.15,30.05,8,1,9,0.01
2013-8-22,90.7,78.9,67.5,77.7,71.3,66.6,97,80,50,30.14,30.01,9,1,10,0.00
2013-8-23,93.5,75.7,68.0,78.2,71.3,66.8,97,88,56,30.08,30.00,17,1,17,0.22
2013-8-24,87.5,76.6,65.3,73.0,68.4,64.4,98,78,53,30.20,30.08,12,2,13,0.00
2013-8-25,87.0,76.4,67.0,74.2,68.6,62.8,96,78,59,30.30,30.19,13,2,13,0.00
2013-8-26,87.8,76.2,64.3,74.7,69.7,63.1,97,82,60,30.28,30.13,11,2,13,0.00
2013-8-27,89.1,76.9,65.0,76.3,70.7,63.8,97,82,62,30.14,30.03,13,2,13,0.00
2013-8-28,91.8,78.8,66.2,76.0,70.8,65.0,97,79,49,30.06,29.99,12,2,12,0.00
2013-8-29,95.3,81.3,68.5,78.9,73.3,67.2,97,79,51,30.03,29.94,9,1,10,0.00
2013-8-30,95.1,82.2,71.1,78.9,74.0,69.9,97,78,52,29.98,29.87,11,2,13,0.00
2013-8-31,94.2,82.3,70.2,78.5,74.3,69.0,97,78,57,29.90,29.78,12,3,18,0.00
2013-9-1,84.3,74.9,66.2,74.4,70.1,65.0,96,86,66,29.92,29.81,25,4,25,1.44
2013-9-2,89.2,76.1,66.4,76.6,71.1,65.2,97,85,62,29.91,29.82,11,1,11,0.01
2013-9-3,84.9,72.9,63.7,71.4,65.3,62.4,96,79,52,30.06,29.90,11,2,11,0.00
2013-9-4,84.4,71.1,57.7,66.4,62.0,56.5,97,75,49,30.15,30.05,9,1,10,0.00
2013-9-5,83.3,69.6,56.1,68.3,62.8,55.3,97,81,54,30.20,30.12,12,1,13,0.00
2013-9-6,87.7,72.7,58.7,70.2,65.1,57.8,97,80,47,30.18,30.06,12,1,17,0.00
2013-9-7,88.7,74.7,60.3,73.7,67.2,59.3,97,80,52,30.09,29.97,13,2,13,0.00
2013-9-8,92.5,78.4,65.2,75.4,69.9,64.0,97,78,49,30.00,29.91,7,1,7,0.00
2013-9-9,89.0,79.1,72.3,77.1,72.7,69.6,96,82,60,30.03,29.96,10,2,10,0.05
2013-9-10,90.9,78.8,71.5,77.6,72.7,67.4,96,82,65,30.15,30.03,14,2,16,0.00
2013-9-11,91.0,75.6,67.4,77.9,70.7,66.2,97,86,58,30.17,30.07,15,2,17,0.43
2013-9-12,88.3,75.7,66.0,77.3,70.8,64.7,98,86,62,30.07,29.92,16,2,16,0.15
2013-9-13,74.5,65.6,54.6,66.3,56.6,49.3,97,74,51,30.07,29.97,19,3,19,0.01
2013-9-14,72.3,59.7,49.6,55.0,51.0,46.6,94,75,49,30.16,30.06,15,2,16,0.00
2013-9-15,80.5,63.9,47.4,63.4,55.7,46.5,97,78,43,30.13,30.06,13,2,13,0.00
2013-9-16,77.2,67.0,56.5,68.5,62.3,55.0,96,85,71,30.19,30.09,9,2,11,0.00
2013-9-17,82.5,70.0,60.7,66.9,63.2,59.2,95,80,57,30.22,30.09,11,2,11,0.00
2013-9-18,81.1,71.9,63.3,72.0,67.2,61.3,96,86,71,30.15,30.05,13,2,15,0.00
2013-9-19,85.7,74.8,65.9,73.4,69.0,64.5,97,83,64,30.11,29.98,17,3,18,0.00
2013-9-20,82.8,72.6,67.0,72.3,68.2,64.3,97,87,65,29.99,29.81,17,3,18,1.79
2013-9-21,73.2,63.9,51.2,66.6,57.0,49.8,97,80,52,29.90,29.77,15,3,16,0.19
2013-9-22,73.5,60.7,48.5,56.2,52.4,47.1,97,77,50,29.99,29.89,12,2,14,0.00
2013-9-23,76.5,63.2,49.0,59.9,55.1,47.2,96,77,52,30.03,29.94,12,2,13,0.00
2013-9-24,80.8,68.9,57.5,67.7,61.2,55.2,95,78,53,29.99,29.83,15,2,15,0.00
2013-9-25,79.8,69.4,61.2,67.9,64.6,60.0,96,86,63,29.88,29.80,14,2,14,0.01
2013-9-26,81.2,68.7,56.9,67.7,61.9,56.1,97,81,55,30.04,29.88,10,2,11,0.00
2013-9-27,83.0,66.3,49.7,64.5,57.5,48.6,97,77,39,30.13,30.03,10,1,10,0.00
2013-9-28,80.5,67.1,57.0,63.4,58.7,54.3,96,77,46,30.17,30.05,17,3,19,0.00
2013-9-29,64.7,62.4,58.0,62.2,59.6,55.9,96,91,82,30.09,30.01,11,2,11,0.52
2013-9-30,75.3,67.3,62.9,65.8,63.1,60.8,96,87,71,30.03,29.96,16,3,17,0.01
2013-10-1,80.7,71.0,63.2,71.7,66.3,60.9,96,86,71,30.09,30.01,15,3,15,0.00
2013-10-2,77.7,70.6,64.7,72.7,68.4,63.5,98,93,82,30.12,30.05,9,2,10,0.27
2013-10-3,83.8,73.5,66.4,70.3,66.7,63.3,97,81,55,30.08,29.98,15,2,17,0.00
2013-10-4,84.3,73.4,64.2,74.1,68.0,62.5,96,84,67,30.09,30.00,13,2,17,0.00
2013-10-5,84.0,73.7,66.0,74.2,69.9,64.2,96,88,69,30.05,29.86,14,2,16,0.08
2013-10-6,72.3,59.5,46.8,69.8,56.9,45.5,97,91,76,29.97,29.83,19,3,19,2.44
2013-10-7,65.0,52.8,41.7,51.9,46.9,40.9,98,82,55,30.16,29.95,13,2,15,0.01
2013-10-8,69.2,56.2,45.6,51.4,47.6,44.0,95,75,46,30.23,30.12,17,3,20,0.01
2013-10-9,82.0,63.8,47.5,64.9,56.4,45.8,96,79,50,30.20,30.10,12,1,12,0.00
2013-10-10,81.3,67.7,57.5,65.5,60.8,55.9,97,80,51,30.17,30.04,7,1,7,0.00
2013-10-11,80.8,67.4,53.0,63.3,58.2,51.3,97,75,48,30.10,29.99,10,1,10,0.00
2013-10-12,80.3,65.6,51.8,65.7,59.6,50.9,97,83,58,30.14,30.03,14,2,14,0.00
2013-10-13,77.0,67.7,58.0,65.5,59.5,47.1,97,76,57,30.28,30.14,16,2,18,0.00
2013-10-14,75.6,63.8,52.2,62.9,55.5,46.4,90,75,60,30.28,30.11,10,2,12,0.00
2013-10-15,73.1,66.4,61.2,65.3,62.1,58.7,94,87,70,30.12,29.95,22,4,22,0.00
2013-10-16,66.7,58.7,51.3,63.8,56.5,50.1,97,92,86,30.02,29.94,12,2,12,0.00
2013-10-17,64.3,52.5,41.5,53.6,47.8,40.5,97,85,56,30.04,29.94,12,2,14,0.00
2013-10-18,68.9,52.3,37.9,53.8,45.7,37.1,98,81,48,30.11,29.97,13,1,15,0.00
2013-10-19,56.0,48.7,36.2,51.6,44.8,35.2,96,87,61,30.10,29.90,14,2,14,0.00
2013-10-20,64.3,46.7,32.9,46.7,39.4,31.9,97,79,43,30.14,30.03,14,2,16,0.00
2013-10-21,68.7,52.8,34.8,52.0,44.7,33.9,97,77,47,30.09,29.98,18,3,21,0.00
2013-10-22,61.7,50.9,37.9,48.8,41.1,34.9,96,72,39,30.09,29.88,15,2,15,0.00
2013-10-23,52.9,44.9,36.1,45.9,36.9,32.9,91,75,49,30.15,29.89,19,4,21,0.00
2013-10-24,50.2,41.9,28.3,40.4,35.2,25.6,94,78,51,30.41,30.14,16,2,18,0.00
2013-10-25,51.6,35.5,22.9,32.6,26.7,21.4,96,74,39,30.56,30.36,12,1,13,0.00
2013-10-26,58.2,42.2,24.4,43.6,34.7,23.2,96,77,52,30.36,30.09,23,4,23,0.00
2013-10-27,67.3,52.6,38.4,51.5,45.7,37.1,96,79,52,30.14,30.05,10,1,10,0.00
2013-10-28,67.0,57.9,47.2,57.8,53.8,45.8,97,87,67,30.27,30.09,10,1,10,0.00
2013-10-29,65.3,57.1,47.3,60.5,54.6,46.2,97,92,81,30.31,30.15,10,2,10,0.00
2013-10-30,76.8,67.9,61.6,66.6,61.7,58.1,96,81,66,30.18,30.01,19,4,25,0.00
2013-10-31,69.6,65.3,57.6,66.1,61.4,55.9,95,88,73,30.01,29.51,27,10,39,0.00
2013-11-1,69.7,57.1,46.5,56.4,49.3,43.8,97,78,42,29.86,29.67,23,4,24,0.00
2013-11-2,58.8,46.8,36.3,49.5,42.9,34.4,97,87,62,30.22,29.85,14,2,15,0.00
2013-11-3,57.2,42.7,29.0,44.5,35.3,28.2,97,78,43,30.37,30.21,13,1,17,0.00
2013-11-4,60.9,51.8,40.2,45.7,41.9,36.3,86,70,52,30.38,30.28,17,3,17,0.00
2013-11-5,67.8,57.9,51.1,47.5,44.4,40.6,70,61,47,30.38,30.20,16,4,16,0.00
2013-11-6,67.1,56.0,42.9,59.3,50.1,40.5,96,82,58,30.20,30.04,21,6,21,0.00
2013-11-7,53.4,41.8,28.5,40.6,32.9,26.8,95,74,38,30.39,30.20,11,2,14,0.00
2013-11-8,55.6,41.2,26.7,39.9,30.5,25.5,96,69,34,30.45,30.26,11,1,13,0.00
2013-11-9,63.6,48.9,33.0,38.4,34.2,27.8,83,59,36,30.29,30.17,27,4,27,0.00
2013-11-10,61.2,44.9,31.5,43.8,32.8,27.2,96,67,33,30.40,30.26,14,2,14,0.00
2013-11-11,69.0,48.7,28.0,43.8,33.1,25.8,95,61,22,30.35,30.18,19,2,19,0.00
2013-11-12,48.8,36.1,26.4,41.8,26.6,20.5,91,69,45,30.70,30.27,25,6,26,0.00
2013-11-13,45.2,31.9,20.1,27.9,21.4,17.4,91,68,36,30.75,30.47,9,1,10,0.00
2013-11-14,55.9,38.1,20.4,27.0,21.2,16.9,89,55,23,30.47,30.21,18,3,20,0.00
2013-11-15,51.1,45.1,36.6,49.0,36.0,21.1,95,72,50,30.23,30.09,11,2,11,0.00
2013-11-16,65.1,58.7,51.0,60.8,55.5,49.0,94,89,84,30.10,29.88,20,7,23,0.00
2013-11-17,71.0,63.8,50.3,66.8,60.3,40.6,97,89,62,29.94,29.63,32,10,32,0.00
2013-11-18,60.4,48.7,36.4,45.5,36.8,29.3,88,65,37,30.30,29.94,16,2,18,0.00
2013-11-19,50.2,40.4,34.0,31.6,29.2,26.4,80,65,42,30.36,30.25,15,3,18,0.00
2013-11-20,59.1,44.2,29.0,37.3,32.7,25.9,90,66,39,30.27,30.16,18,3,19,0.00
2013-11-21,66.2,54.6,45.5,54.7,47.1,35.0,95,76,59,30.28,30.17,16,3,17,0.00
2013-11-22,58.2,50.6,41.4,56.7,48.4,37.8,97,92,87,30.42,30.19,19,4,20,0.00
2013-11-23,45.7,35.8,21.9,37.7,25.5,11.3,88,68,27,30.65,30.40,20,6,23,0.00
2013-11-24,32.7,24.9,16.5,17.9,14.8,11.7,82,66,45,30.75,30.52,15,3,15,0.00
2013-11-25,41.6,32.6,27.3,31.5,23.5,15.1,94,71,46,30.52,30.22,12,3,14,0.00
2013-11-26,36.4,34.5,32.5,34.0,31.5,24.5,95,89,72,30.23,29.99,17,4,19,0.00
2013-11-27,32.5,23.5,13.3,24.4,13.1,9.6,87,65,43,30.43,30.09,19,5,21,0.00
2013-11-28,42.6,26.1,12.3,21.2,16.7,9.4,93,70,39,30.54,30.39,17,3,17,0.00
2013-11-29,50.4,33.2,17.9,31.5,24.6,16.1,95,73,43,30.65,30.50,9,1,9,0.00
2013-11-30,56.6,40.5,23.0,33.7,25.3,20.5,93,59,29,30.50,30.24,20,4,21,0.00
2013-12-1,54.2,48.4,43.1,40.5,36.1,28.2,79,63,53,30.25,29.96,8,2,8,0.00
2013-12-2,58.2,50.4,43.2,47.7,43.9,39.0,92,79,67,29.96,29.75,11,1,11,0.00
2013-12-3,62.2,54.1,47.6,53.9,50.8,45.6,96,89,72,29.82,29.74,15,3,15,0.00
2013-12-4,73.7,65.5,55.8,62.4,58.9,53.7,95,80,59,29.83,29.70,28,8,28,0.00
2013-12-5,68.8,45.4,31.3,64.3,42.1,29.2,93,88,81,30.20,29.81,20,6,20,0.00
2013-12-6,31.5,28.2,24.3,29.9,26.4,22.1,94,93,91,30.48,30.13,14,4,16,0.00
2013-12-7,25.1,22.3,17.9,23.1,19.6,14.7,92,89,85,30.65,30.43,11,4,12,0.00
2013-12-8,33.0,30.8,25.2,32.2,29.5,23.1,97,95,92,30.44,30.08,11,3,11,0.00
2013-12-9,32.3,29.4,25.4,31.3,26.2,20.9,96,88,82,30.32,30.14,12,3,13,0.00
2013-12-10,36.3,26.6,18.9,27.9,21.9,17.1,94,82,64,30.45,30.25,17,3,17,0.00
2013-12-11,42.7,28.0,16.0,33.1,22.8,14.3,95,81,61,30.64,30.44,17,3,17,0.00
2013-12-12,35.4,24.8,17.0,17.3,14.5,11.0,85,66,40,30.67,30.44,11,1,12,0.00
2013-12-13,42.8,32.5,15.6,32.7,22.3,12.1,89,67,47,30.44,30.01,9,3,11,0.00
2013-12-14,43.8,38.1,33.1,42.6,35.9,30.0,96,92,81,30.09,29.82,15,5,17,0.00
2013-12-15,33.2,30.8,25.4,30.7,27.1,23.7,94,86,80,30.27,30.09,16,5,17,0.00
2013-12-16,53.5,40.4,26.2,38.9,33.6,24.4,95,78,55,30.23,30.08,21,4,21,0.00
2013-12-17,48.1,38.3,25.9,38.6,32.1,22.6,94,79,53,30.33,30.11,15,2,19,0.00
2013-12-19,56.6,56.5,56.5,46.2,46.1,46.1,68,68,68,30.00,29.99,12,8,14,0.00
2013-12-20,63.8,57.2,55.1,60.5,49.9,45.4,89,77,67,30.00,29.86,18,8,20,0.00
2013-12-21,72.9,65.4,57.6,66.1,61.6,56.0,97,88,76,29.87,29.51,38,11,44,0.00
2013-12-22,60.6,47.7,35.5,59.8,45.6,32.3,97,92,83,30.21,29.57,16,6,26,0.00
2013-12-23,35.5,30.9,25.1,32.3,25.9,20.8,92,82,72,30.52,30.21,14,4,15,0.00
2013-12-24,28.0,22.9,16.7,21.5,13.6,9.0,84,68,50,30.67,30.49,14,3,15,0.00
2013-12-25,43.6,30.8,15.6,26.8,19.9,12.4,89,65,40,30.49,30.33,14,3,15,0.00
2013-12-26,46.1,33.0,22.0,33.0,26.5,20.4,96,79,47,30.48,30.34,8,1,9,0.00
2013-12-27,52.4,34.0,19.4,33.5,26.1,17.9,95,76,43,30.52,30.39,11,1,11,0.00
2013-12-28,45.5,35.8,23.4,37.5,30.2,21.3,95,81,62,30.40,30.01,8,1,8,0.00
2013-12-29,52.7,39.5,28.3,43.6,35.7,24.3,97,87,68,30.22,29.94,16,4,18,0.00
2013-12-30,31.0,25.9,18.8,24.2,21.0,16.7,93,82,70,30.35,30.22,11,2,12,0.00
2013-12-31,42.1,29.3,17.1,28.8,22.7,14.9,95,77,56,30.50,30.33,10,1,11,0.00
2014-1-1,49.1,36.5,22.1,37.1,27.9,19.2,94,73,46,30.35,29.99,17,3,18,0.00
2014-1-2,39.5,29.0,16.0,38.5,25.9,11.2,96,88,73,30.46,29.91,23,6,26,0.00